Brownfield, ME (04010)

5:44 PM EST on February 11, 2016 (GMT -0500)
misty lane | | Change Station
CLOSE
Current Station
Personal Weather Station
Location: Brownfield, ME
Elevation: 404 ft
Nearby Weather Stations

Elev 404 ft 43.94 °N, 70.87 °W | Updated 2 minutes ago

Overcast
Overcast
18.6 °F
Feels Like 11 °F
N
5.0
Wind Variable Wind from NNE
Gusts 11.0 mph

Today
High -- | Low -- °F
--% Chance of Precip.
Yesterday
High -- | Low -- °F
Precip. -- in
Pressure 29.73 in
Visibility 10.0 miles
Clouds Overcast 7500 ft
Windchill 11 °F
Dew Point 2 °F
Humidity 49%
Rainfall 0.00 in
Snow Depth Not available.
6:49 AM 5:07 PM
Waxing Crescent, 15% visible
METAR KIZG 112154Z AUTO 29009G19KT 250V320 10SM OVC075 M07/M17 A2970 RMK AO2 SLP066 T10671172
Pressure 29.73 in
Visibility 10.0 miles
Clouds Overcast 7500 ft
Windchill 11 °F
Dew Point 2 °F
Humidity 49%
Rainfall 0.00 in
Snow Depth Not available.
6:49 AM 5:07 PM
Waxing Crescent, 15% visible
METAR KIZG 112154Z AUTO 29009G19KT 250V320 10SM OVC075 M07/M17 A2970 RMK AO2 SLP066 T10671172

10-Day Weather Forecast

Almanac

Astronomy

Feb. 11, 2016 Rise Set
Actual Time
Civil Twilight
Nautical Twilight
Astronomical Twilight
Moon
Length of Visible Light
Length of Day
Tomorrow will be .
, % of the Moon is Illuminated

Today's Extremes

State Highs State Lows

Community

WunderPhotos

Upload Photos

1,892,173 photos uploaded!

WunderBlog® & News

Nearby

Air Quality

  Air Quality AQ Index Pollutant
Not available.

Snow Depth

Station Depth Elevation

Earthquake Activity

City Distance Mag. Time & Date
Minimum magnitude displayed is 2.5.

Coastal Water Temperatures

Place Temperature

Stations

Nearby Weather Stations

Station Location Temp. Windchill Dew Point Humidity Wind Precip. Elev Updated Type
                   

Watches & Warnings

There are currently no watches in effect.